sensor_id;sensor_type;location;lat;lon;timestamp;P1;durP1;ratioP1;P2;durP2;ratioP2
63965;SDS011;50151;52.030;5.350;2023-03-23T00:01:05;8.63;;;2.88;;
63965;SDS011;50151;52.030;5.350;2023-03-23T00:03:35;5.38;;;2.90;;
63965;SDS011;50151;52.030;5.350;2023-03-23T00:06:01;7.00;;;2.28;;
63965;SDS011;50151;52.030;5.350;2023-03-23T00:08:30;4.82;;;2.45;;
63965;SDS011;50151;52.030;5.350;2023-03-23T00:10:57;7.65;;;3.15;;
63965;SDS011;50151;52.030;5.350;2023-03-23T00:13:23;9.18;;;3.17;;
63965;SDS011;50151;52.030;5.350;2023-03-23T00:15:49;5.78;;;2.70;;
63965;SDS011;50151;52.030;5.350;2023-03-23T00:18:17;5.13;;;2.60;;
63965;SDS011;50151;52.030;5.350;2023-03-23T00:20:50;8.05;;;3.15;;
63965;SDS011;50151;52.030;5.350;2023-03-23T00:25:49;5.70;;;2.72;;
63965;SDS011;50151;52.030;5.350;2023-03-23T00:28:21;6.53;;;2.50;;
63965;SDS011;50151;52.030;5.350;2023-03-23T00:30:58;6.53;;;2.70;;
63965;SDS011;50151;52.030;5.350;2023-03-23T00:33:26;5.43;;;2.70;;
63965;SDS011;50151;52.030;5.350;2023-03-23T00:35:53;6.07;;;2.25;;
63965;SDS011;50151;52.030;5.350;2023-03-23T00:38:21;6.22;;;3.00;;
63965;SDS011;50151;52.030;5.350;2023-03-23T00:40:48;4.63;;;2.63;;
63965;SDS011;50151;52.030;5.350;2023-03-23T00:43:15;6.38;;;2.80;;
63965;SDS011;50151;52.030;5.350;2023-03-23T00:45:41;7.28;;;2.80;;
63965;SDS011;50151;52.030;5.350;2023-03-23T00:48:09;3.60;;;1.95;;
63965;SDS011;50151;52.030;5.350;2023-03-23T00:50:37;7.00;;;2.40;;
63965;SDS011;50151;52.030;5.350;2023-03-23T00:53:04;5.80;;;2.25;;
63965;SDS011;50151;52.030;5.350;2023-03-23T00:55:30;6.63;;;2.08;;
63965;SDS011;50151;52.030;5.350;2023-03-23T00:57:56;6.63;;;2.22;;
63965;SDS011;50151;52.030;5.350;2023-03-23T01:00:21;4.80;;;1.90;;
63965;SDS011;50151;52.030;5.350;2023-03-23T01:02:48;8.70;;;2.35;;
63965;SDS011;50151;52.030;5.350;2023-03-23T01:05:16;6.32;;;2.30;;
63965;SDS011;50151;52.030;5.350;2023-03-23T01:07:43;5.72;;;2.35;;
63965;SDS011;50151;52.030;5.350;2023-03-23T01:10:09;4.72;;;2.53;;
63965;SDS011;50151;52.030;5.350;2023-03-23T01:12:38;6.90;;;2.35;;
63965;SDS011;50151;52.030;5.350;2023-03-23T01:15:04;4.03;;;2.30;;
63965;SDS011;50151;52.030;5.350;2023-03-23T01:17:31;4.90;;;2.30;;
63965;SDS011;50151;52.030;5.350;2023-03-23T01:19:57;5.35;;;2.40;;
63965;SDS011;50151;52.030;5.350;2023-03-23T01:22:22;4.97;;;1.92;;
63965;SDS011;50151;52.030;5.350;2023-03-23T01:24:48;3.22;;;2.17;;
63965;SDS011;50151;52.030;5.350;2023-03-23T01:27:14;5.43;;;2.83;;
63965;SDS011;50151;52.030;5.350;2023-03-23T01:29:39;6.10;;;2.00;;
63965;SDS011;50151;52.030;5.350;2023-03-23T01:32:05;5.65;;;2.15;;
63965;SDS011;50151;52.030;5.350;2023-03-23T01:34:31;3.72;;;2.10;;
63965;SDS011;50151;52.030;5.350;2023-03-23T01:36:56;5.90;;;1.98;;
63965;SDS011;50151;52.030;5.350;2023-03-23T01:39:22;3.08;;;1.83;;
63965;SDS011;50151;52.030;5.350;2023-03-23T01:41:48;4.80;;;1.98;;
63965;SDS011;50151;52.030;5.350;2023-03-23T01:46:42;5.95;;;2.40;;
63965;SDS011;50151;52.030;5.350;2023-03-23T01:49:10;5.80;;;2.30;;
63965;SDS011;50151;52.030;5.350;2023-03-23T01:51:46;3.95;;;2.30;;
63965;SDS011;50151;52.030;5.350;2023-03-23T01:54:18;4.03;;;2.22;;
63965;SDS011;50151;52.030;5.350;2023-03-23T01:56:54;7.80;;;2.65;;
63965;SDS011;50151;52.030;5.350;2023-03-23T01:59:26;7.63;;;2.20;;
63965;SDS011;50151;52.030;5.350;2023-03-23T02:01:54;4.07;;;2.38;;
63965;SDS011;50151;52.030;5.350;2023-03-23T02:04:20;6.15;;;2.60;;
63965;SDS011;50151;52.030;5.350;2023-03-23T02:06:49;3.55;;;2.05;;
63965;SDS011;50151;52.030;5.350;2023-03-23T02:09:16;4.07;;;2.30;;
63965;SDS011;50151;52.030;5.350;2023-03-23T02:11:43;5.70;;;2.85;;
63965;SDS011;50151;52.030;5.350;2023-03-23T02:14:10;5.55;;;2.90;;
63965;SDS011;50151;52.030;5.350;2023-03-23T02:16:49;4.95;;;2.72;;
63965;SDS011;50151;52.030;5.350;2023-03-23T02:25:14;3.13;;;2.08;;
63965;SDS011;50151;52.030;5.350;2023-03-23T02:33:54;3.58;;;2.30;;
63965;SDS011;50151;52.030;5.350;2023-03-23T02:38:58;2.97;;;2.40;;
63965;SDS011;50151;52.030;5.350;2023-03-23T02:41:36;5.50;;;2.63;;
63965;SDS011;50151;52.030;5.350;2023-03-23T02:44:07;6.22;;;2.78;;
63965;SDS011;50151;52.030;5.350;2023-03-23T02:46:35;4.95;;;2.45;;
63965;SDS011;50151;52.030;5.350;2023-03-23T02:49:02;6.65;;;2.50;;
63965;SDS011;50151;52.030;5.350;2023-03-23T02:51:31;5.38;;;2.90;;
63965;SDS011;50151;52.030;5.350;2023-03-23T02:53:59;4.20;;;2.35;;
63965;SDS011;50151;52.030;5.350;2023-03-23T02:56:26;6.63;;;2.50;;
63965;SDS011;50151;52.030;5.350;2023-03-23T02:58:53;2.78;;;2.22;;
63965;SDS011;50151;52.030;5.350;2023-03-23T03:03:51;5.43;;;2.88;;
63965;SDS011;50151;52.030;5.350;2023-03-23T03:09:30;7.35;;;2.63;;
63965;SDS011;50151;52.030;5.350;2023-03-23T03:12:13;9.43;;;2.83;;
63965;SDS011;50151;52.030;5.350;2023-03-23T03:14:57;4.88;;;2.17;;
63965;SDS011;50151;52.030;5.350;2023-03-23T03:17:26;6.07;;;2.05;;
63965;SDS011;50151;52.030;5.350;2023-03-23T03:19:55;5.78;;;1.98;;
63965;SDS011;50151;52.030;5.350;2023-03-23T03:22:24;4.20;;;2.20;;
63965;SDS011;50151;52.030;5.350;2023-03-23T03:24:53;6.30;;;2.22;;
63965;SDS011;50151;52.030;5.350;2023-03-23T03:27:21;4.13;;;1.88;;
63965;SDS011;50151;52.030;5.350;2023-03-23T03:29:49;6.07;;;2.28;;
63965;SDS011;50151;52.030;5.350;2023-03-23T03:32:23;5.40;;;1.90;;
63965;SDS011;50151;52.030;5.350;2023-03-23T03:34:56;2.88;;;1.75;;
63965;SDS011;50151;52.030;5.350;2023-03-23T03:37:25;4.13;;;1.92;;
63965;SDS011;50151;52.030;5.350;2023-03-23T03:39:51;6.85;;;1.73;;
63965;SDS011;50151;52.030;5.350;2023-03-23T03:42:17;4.18;;;1.90;;
63965;SDS011;50151;52.030;5.350;2023-03-23T03:44:42;4.32;;;2.13;;
63965;SDS011;50151;52.030;5.350;2023-03-23T03:47:08;6.97;;;1.88;;
63965;SDS011;50151;52.030;5.350;2023-03-23T03:49:34;3.55;;;1.70;;
63965;SDS011;50151;52.030;5.350;2023-03-23T03:52:00;5.85;;;1.75;;
63965;SDS011;50151;52.030;5.350;2023-03-23T03:54:25;5.07;;;2.00;;
63965;SDS011;50151;52.030;5.350;2023-03-23T03:56:51;4.35;;;1.75;;
63965;SDS011;50151;52.030;5.350;2023-03-23T03:59:22;4.93;;;1.95;;
63965;SDS011;50151;52.030;5.350;2023-03-23T04:01:48;3.33;;;1.50;;
63965;SDS011;50151;52.030;5.350;2023-03-23T04:04:19;4.10;;;1.77;;
63965;SDS011;50151;52.030;5.350;2023-03-23T04:06:46;3.08;;;1.70;;
63965;SDS011;50151;52.030;5.350;2023-03-23T04:09:13;3.22;;;1.58;;
63965;SDS011;50151;52.030;5.350;2023-03-23T04:11:39;3.35;;;1.70;;
63965;SDS011;50151;52.030;5.350;2023-03-23T04:14:05;3.97;;;1.90;;
63965;SDS011;50151;52.030;5.350;2023-03-23T04:16:31;6.82;;;1.98;;
63965;SDS011;50151;52.030;5.350;2023-03-23T04:18:59;3.05;;;1.90;;
63965;SDS011;50151;52.030;5.350;2023-03-23T04:21:25;5.93;;;1.70;;
63965;SDS011;50151;52.030;5.350;2023-03-23T04:23:53;4.30;;;1.60;;
63965;SDS011;50151;52.030;5.350;2023-03-23T04:26:24;3.08;;;1.42;;
63965;SDS011;50151;52.030;5.350;2023-03-23T04:28:51;4.57;;;1.30;;
63965;SDS011;50151;52.030;5.350;2023-03-23T04:31:17;7.55;;;1.80;;
63965;SDS011;50151;52.030;5.350;2023-03-23T04:33:42;5.13;;;1.50;;
63965;SDS011;50151;52.030;5.350;2023-03-23T04:36:08;5.30;;;1.80;;
63965;SDS011;50151;52.030;5.350;2023-03-23T04:38:34;6.82;;;1.48;;
63965;SDS011;50151;52.030;5.350;2023-03-23T04:41:00;5.93;;;1.30;;
63965;SDS011;50151;52.030;5.350;2023-03-23T04:43:27;7.10;;;1.42;;
63965;SDS011;50151;52.030;5.350;2023-03-23T04:45:57;2.38;;;1.15;;
63965;SDS011;50151;52.030;5.350;2023-03-23T04:48:25;6.38;;;1.38;;
63965;SDS011;50151;52.030;5.350;2023-03-23T04:50:53;5.75;;;1.55;;
63965;SDS011;50151;52.030;5.350;2023-03-23T04:53:19;8.90;;;1.70;;
63965;SDS011;50151;52.030;5.350;2023-03-23T04:55:45;7.07;;;1.73;;
63965;SDS011;50151;52.030;5.350;2023-03-23T04:58:13;4.65;;;1.38;;
63965;SDS011;50151;52.030;5.350;2023-03-23T05:00:39;11.05;;;1.48;;
63965;SDS011;50151;52.030;5.350;2023-03-23T05:03:08;9.48;;;1.60;;
63965;SDS011;50151;52.030;5.350;2023-03-23T05:05:41;5.63;;;1.52;;
63965;SDS011;50151;52.030;5.350;2023-03-23T05:08:07;9.70;;;1.63;;
63965;SDS011;50151;52.030;5.350;2023-03-23T05:10:33;5.28;;;1.67;;
63965;SDS011;50151;52.030;5.350;2023-03-23T05:12:58;4.63;;;1.23;;
63965;SDS011;50151;52.030;5.350;2023-03-23T05:15:24;6.78;;;1.27;;
63965;SDS011;50151;52.030;5.350;2023-03-23T05:17:53;6.57;;;1.25;;
63965;SDS011;50151;52.030;5.350;2023-03-23T05:20:20;6.00;;;1.38;;
63965;SDS011;50151;52.030;5.350;2023-03-23T05:22:47;7.28;;;1.52;;
63965;SDS011;50151;52.030;5.350;2023-03-23T05:25:14;7.18;;;1.60;;
63965;SDS011;50151;52.030;5.350;2023-03-23T05:27:44;4.30;;;1.15;;
63965;SDS011;50151;52.030;5.350;2023-03-23T05:30:14;10.85;;;1.95;;
63965;SDS011;50151;52.030;5.350;2023-03-23T05:32:41;6.72;;;1.20;;
63965;SDS011;50151;52.030;5.350;2023-03-23T05:35:10;5.10;;;1.27;;
63965;SDS011;50151;52.030;5.350;2023-03-23T05:37:36;4.55;;;1.35;;
63965;SDS011;50151;52.030;5.350;2023-03-23T05:40:03;5.75;;;1.63;;
63965;SDS011;50151;52.030;5.350;2023-03-23T05:42:34;6.43;;;1.70;;
63965;SDS011;50151;52.030;5.350;2023-03-23T05:45:01;11.45;;;1.73;;
63965;SDS011;50151;52.030;5.350;2023-03-23T05:47:28;7.65;;;1.58;;
63965;SDS011;50151;52.030;5.350;2023-03-23T05:49:53;8.93;;;1.70;;
63965;SDS011;50151;52.030;5.350;2023-03-23T05:52:19;7.45;;;1.83;;
63965;SDS011;50151;52.030;5.350;2023-03-23T05:54:46;7.50;;;1.48;;
63965;SDS011;50151;52.030;5.350;2023-03-23T05:57:11;6.70;;;1.77;;
63965;SDS011;50151;52.030;5.350;2023-03-23T05:59:37;9.40;;;1.65;;
63965;SDS011;50151;52.030;5.350;2023-03-23T06:02:03;9.35;;;1.85;;
63965;SDS011;50151;52.030;5.350;2023-03-23T06:04:29;8.07;;;1.58;;
63965;SDS011;50151;52.030;5.350;2023-03-23T06:06:54;14.55;;;1.83;;
63965;SDS011;50151;52.030;5.350;2023-03-23T06:09:21;6.00;;;1.70;;
63965;SDS011;50151;52.030;5.350;2023-03-23T06:11:48;6.57;;;1.58;;
63965;SDS011;50151;52.030;5.350;2023-03-23T06:14:14;4.82;;;1.33;;
63965;SDS011;50151;52.030;5.350;2023-03-23T06:16:41;9.80;;;1.73;;
63965;SDS011;50151;52.030;5.350;2023-03-23T06:19:07;6.13;;;1.60;;
63965;SDS011;50151;52.030;5.350;2023-03-23T06:21:32;2.78;;;1.17;;
63965;SDS011;50151;52.030;5.350;2023-03-23T06:23:59;5.78;;;1.70;;
63965;SDS011;50151;52.030;5.350;2023-03-23T06:26:34;9.43;;;1.90;;
63965;SDS011;50151;52.030;5.350;2023-03-23T06:29:03;8.27;;;1.83;;
63965;SDS011;50151;52.030;5.350;2023-03-23T06:31:36;6.97;;;1.90;;
63965;SDS011;50151;52.030;5.350;2023-03-23T06:34:05;12.60;;;2.40;;
63965;SDS011;50151;52.030;5.350;2023-03-23T06:36:30;4.22;;;1.42;;
63965;SDS011;50151;52.030;5.350;2023-03-23T06:38:56;8.35;;;2.03;;
63965;SDS011;50151;52.030;5.350;2023-03-23T06:41:22;8.98;;;1.98;;
63965;SDS011;50151;52.030;5.350;2023-03-23T06:43:48;10.13;;;1.95;;
63965;SDS011;50151;52.030;5.350;2023-03-23T06:46:13;5.00;;;1.45;;
63965;SDS011;50151;52.030;5.350;2023-03-23T06:48:39;12.85;;;2.70;;
63965;SDS011;50151;52.030;5.350;2023-03-23T06:51:05;6.72;;;1.98;;
63965;SDS011;50151;52.030;5.350;2023-03-23T06:53:31;3.70;;;1.63;;
63965;SDS011;50151;52.030;5.350;2023-03-23T06:55:57;6.80;;;1.88;;
63965;SDS011;50151;52.030;5.350;2023-03-23T06:58:22;8.38;;;2.47;;
63965;SDS011;50151;52.030;5.350;2023-03-23T07:00:52;13.02;;;2.22;;
63965;SDS011;50151;52.030;5.350;2023-03-23T07:03:22;4.10;;;1.70;;
63965;SDS011;50151;52.030;5.350;2023-03-23T07:05:48;5.97;;;1.58;;
63965;SDS011;50151;52.030;5.350;2023-03-23T07:08:14;10.65;;;1.50;;
63965;SDS011;50151;52.030;5.350;2023-03-23T07:10:39;6.63;;;1.55;;
63965;SDS011;50151;52.030;5.350;2023-03-23T07:13:05;8.73;;;1.60;;
63965;SDS011;50151;52.030;5.350;2023-03-23T07:15:30;8.73;;;1.63;;
63965;SDS011;50151;52.030;5.350;2023-03-23T07:17:56;6.07;;;1.70;;
63965;SDS011;50151;52.030;5.350;2023-03-23T07:20:22;10.45;;;2.30;;
63965;SDS011;50151;52.030;5.350;2023-03-23T07:22:48;4.38;;;1.38;;
63965;SDS011;50151;52.030;5.350;2023-03-23T07:25:14;7.43;;;1.55;;
63965;SDS011;50151;52.030;5.350;2023-03-23T07:27:41;8.25;;;1.60;;
63965;SDS011;50151;52.030;5.350;2023-03-23T07:30:06;7.88;;;1.80;;
63965;SDS011;50151;52.030;5.350;2023-03-23T07:32:33;7.00;;;1.52;;
63965;SDS011;50151;52.030;5.350;2023-03-23T07:34:58;11.27;;;2.00;;
63965;SDS011;50151;52.030;5.350;2023-03-23T07:37:24;7.88;;;1.73;;
63965;SDS011;50151;52.030;5.350;2023-03-23T07:39:50;5.75;;;2.00;;
63965;SDS011;50151;52.030;5.350;2023-03-23T07:42:16;4.78;;;1.45;;
63965;SDS011;50151;52.030;5.350;2023-03-23T07:44:41;6.20;;;1.55;;
63965;SDS011;50151;52.030;5.350;2023-03-23T07:47:07;4.30;;;1.65;;
63965;SDS011;50151;52.030;5.350;2023-03-23T07:49:33;6.40;;;1.70;;
63965;SDS011;50151;52.030;5.350;2023-03-23T07:51:58;3.70;;;1.35;;
63965;SDS011;50151;52.030;5.350;2023-03-23T07:54:26;5.60;;;1.65;;
63965;SDS011;50151;52.030;5.350;2023-03-23T07:56:52;5.22;;;1.23;;
63965;SDS011;50151;52.030;5.350;2023-03-23T07:59:17;5.15;;;1.30;;
63965;SDS011;50151;52.030;5.350;2023-03-23T08:01:43;4.00;;;1.40;;
63965;SDS011;50151;52.030;5.350;2023-03-23T08:04:09;4.97;;;1.90;;
63965;SDS011;50151;52.030;5.350;2023-03-23T08:06:34;10.48;;;2.22;;
63965;SDS011;50151;52.030;5.350;2023-03-23T08:09:01;7.57;;;1.50;;
63965;SDS011;50151;52.030;5.350;2023-03-23T08:11:33;5.30;;;1.77;;
63965;SDS011;50151;52.030;5.350;2023-03-23T08:13:59;12.80;;;1.85;;
63965;SDS011;50151;52.030;5.350;2023-03-23T08:16:25;7.68;;;1.77;;
63965;SDS011;50151;52.030;5.350;2023-03-23T08:18:51;14.07;;;2.33;;
63965;SDS011;50151;52.030;5.350;2023-03-23T08:21:17;7.35;;;1.70;;
63965;SDS011;50151;52.030;5.350;2023-03-23T08:23:43;7.82;;;2.08;;
63965;SDS011;50151;52.030;5.350;2023-03-23T08:26:09;7.35;;;1.45;;
63965;SDS011;50151;52.030;5.350;2023-03-23T08:28:35;3.97;;;1.73;;
63965;SDS011;50151;52.030;5.350;2023-03-23T08:31:05;8.80;;;1.75;;
63965;SDS011;50151;52.030;5.350;2023-03-23T08:33:32;5.50;;;1.63;;
63965;SDS011;50151;52.030;5.350;2023-03-23T08:35:58;5.18;;;1.48;;
63965;SDS011;50151;52.030;5.350;2023-03-23T08:38:24;6.88;;;1.75;;
63965;SDS011;50151;52.030;5.350;2023-03-23T08:40:50;8.45;;;1.80;;
63965;SDS011;50151;52.030;5.350;2023-03-23T08:43:17;8.38;;;2.40;;
63965;SDS011;50151;52.030;5.350;2023-03-23T08:45:43;8.10;;;1.77;;
63965;SDS011;50151;52.030;5.350;2023-03-23T08:48:08;6.00;;;1.63;;
63965;SDS011;50151;52.030;5.350;2023-03-23T08:50:35;4.18;;;1.23;;
63965;SDS011;50151;52.030;5.350;2023-03-23T08:53:01;6.80;;;1.40;;
63965;SDS011;50151;52.030;5.350;2023-03-23T08:55:28;5.72;;;1.70;;
63965;SDS011;50151;52.030;5.350;2023-03-23T08:57:54;10.27;;;1.92;;
63965;SDS011;50151;52.030;5.350;2023-03-23T09:00:20;5.13;;;1.50;;
63965;SDS011;50151;52.030;5.350;2023-03-23T09:02:50;8.75;;;1.40;;
63965;SDS011;50151;52.030;5.350;2023-03-23T09:05:18;5.18;;;1.85;;
63965;SDS011;50151;52.030;5.350;2023-03-23T09:07:48;7.95;;;1.60;;
63965;SDS011;50151;52.030;5.350;2023-03-23T09:10:15;6.88;;;1.48;;
63965;SDS011;50151;52.030;5.350;2023-03-23T09:12:43;8.30;;;1.60;;
63965;SDS011;50151;52.030;5.350;2023-03-23T09:15:10;7.45;;;1.83;;
63965;SDS011;50151;52.030;5.350;2023-03-23T09:17:39;7.03;;;1.55;;
63965;SDS011;50151;52.030;5.350;2023-03-23T09:20:14;10.80;;;1.88;;
63965;SDS011;50151;52.030;5.350;2023-03-23T09:22:45;9.32;;;2.03;;
63965;SDS011;50151;52.030;5.350;2023-03-23T09:25:13;4.80;;;1.35;;
63965;SDS011;50151;52.030;5.350;2023-03-23T09:27:41;7.72;;;1.45;;
63965;SDS011;50151;52.030;5.350;2023-03-23T09:30:09;12.55;;;1.95;;
63965;SDS011;50151;52.030;5.350;2023-03-23T09:32:37;8.55;;;1.65;;
63965;SDS011;50151;52.030;5.350;2023-03-23T09:35:04;10.90;;;2.40;;
63965;SDS011;50151;52.030;5.350;2023-03-23T09:37:37;8.15;;;2.17;;
63965;SDS011;50151;52.030;5.350;2023-03-23T09:40:05;12.05;;;2.17;;
63965;SDS011;50151;52.030;5.350;2023-03-23T09:42:51;7.75;;;1.73;;
63965;SDS011;50151;52.030;5.350;2023-03-23T09:45:52;10.40;;;1.85;;
63965;SDS011;50151;52.030;5.350;2023-03-23T09:53:57;7.03;;;1.95;;
63965;SDS011;50151;52.030;5.350;2023-03-23T09:56:31;6.45;;;2.00;;
63965;SDS011;50151;52.030;5.350;2023-03-23T09:59:00;9.10;;;1.88;;
63965;SDS011;50151;52.030;5.350;2023-03-23T10:01:38;7.13;;;1.83;;
63965;SDS011;50151;52.030;5.350;2023-03-23T10:04:14;10.52;;;2.00;;
63965;SDS011;50151;52.030;5.350;2023-03-23T10:06:48;9.35;;;1.50;;
63965;SDS011;50151;52.030;5.350;2023-03-23T10:09:16;10.18;;;1.92;;
63965;SDS011;50151;52.030;5.350;2023-03-23T10:11:56;8.35;;;1.92;;
63965;SDS011;50151;52.030;5.350;2023-03-23T10:14:48;11.10;;;2.35;;
63965;SDS011;50151;52.030;5.350;2023-03-23T10:17:36;6.32;;;1.65;;
63965;SDS011;50151;52.030;5.350;2023-03-23T10:23:08;7.45;;;1.80;;
63965;SDS011;50151;52.030;5.350;2023-03-23T10:31:09;9.00;;;2.20;;
63965;SDS011;50151;52.030;5.350;2023-03-23T10:33:47;8.48;;;2.20;;
63965;SDS011;50151;52.030;5.350;2023-03-23T10:36:23;13.00;;;2.45;;
63965;SDS011;50151;52.030;5.350;2023-03-23T10:39:02;12.35;;;2.00;;
63965;SDS011;50151;52.030;5.350;2023-03-23T10:41:29;14.90;;;2.08;;
63965;SDS011;50151;52.030;5.350;2023-03-23T10:43:56;8.05;;;2.15;;
63965;SDS011;50151;52.030;5.350;2023-03-23T10:49:08;9.45;;;1.83;;
63965;SDS011;50151;52.030;5.350;2023-03-23T10:51:37;7.40;;;2.05;;
63965;SDS011;50151;52.030;5.350;2023-03-23T10:54:06;14.77;;;2.08;;
63965;SDS011;50151;52.030;5.350;2023-03-23T10:56:37;16.20;;;1.83;;
63965;SDS011;50151;52.030;5.350;2023-03-23T10:59:15;10.55;;;2.03;;
63965;SDS011;50151;52.030;5.350;2023-03-23T11:01:47;9.98;;;2.17;;
63965;SDS011;50151;52.030;5.350;2023-03-23T11:04:16;9.45;;;2.45;;
63965;SDS011;50151;52.030;5.350;2023-03-23T11:06:45;5.88;;;1.45;;
63965;SDS011;50151;52.030;5.350;2023-03-23T11:09:18;9.63;;;2.08;;
63965;SDS011;50151;52.030;5.350;2023-03-23T11:11:50;8.48;;;1.60;;
63965;SDS011;50151;52.030;5.350;2023-03-23T11:14:25;6.85;;;1.70;;
63965;SDS011;50151;52.030;5.350;2023-03-23T11:16:56;10.65;;;1.90;;
63965;SDS011;50151;52.030;5.350;2023-03-23T11:21:54;7.72;;;1.70;;
63965;SDS011;50151;52.030;5.350;2023-03-23T11:24:26;8.02;;;2.38;;
63965;SDS011;50151;52.030;5.350;2023-03-23T11:26:52;10.07;;;2.15;;
63965;SDS011;50151;52.030;5.350;2023-03-23T11:29:22;9.45;;;2.30;;
63965;SDS011;50151;52.030;5.350;2023-03-23T11:31:51;10.27;;;2.20;;
63965;SDS011;50151;52.030;5.350;2023-03-23T11:34:45;9.20;;;1.80;;
63965;SDS011;50151;52.030;5.350;2023-03-23T11:42:56;8.00;;;1.50;;
63965;SDS011;50151;52.030;5.350;2023-03-23T11:45:39;9.52;;;2.13;;
63965;SDS011;50151;52.030;5.350;2023-03-23T11:48:25;11.27;;;1.88;;
63965;SDS011;50151;52.030;5.350;2023-03-23T11:51:30;7.90;;;1.63;;
63965;SDS011;50151;52.030;5.350;2023-03-23T11:54:12;8.43;;;2.10;;
63965;SDS011;50151;52.030;5.350;2023-03-23T11:56:58;9.00;;;1.58;;
63965;SDS011;50151;52.030;5.350;2023-03-23T11:59:29;7.82;;;1.80;;
63965;SDS011;50151;52.030;5.350;2023-03-23T12:04:30;9.82;;;2.00;;
63965;SDS011;50151;52.030;5.350;2023-03-23T12:07:26;12.70;;;1.92;;
63965;SDS011;50151;52.030;5.350;2023-03-23T12:13:01;10.63;;;1.83;;
63965;SDS011;50151;52.030;5.350;2023-03-23T12:16:00;6.78;;;1.60;;
63965;SDS011;50151;52.030;5.350;2023-03-23T12:18:43;10.95;;;2.10;;
63965;SDS011;50151;52.030;5.350;2023-03-23T12:21:38;5.00;;;1.13;;
63965;SDS011;50151;52.030;5.350;2023-03-23T12:24:55;6.55;;;1.33;;
63965;SDS011;50151;52.030;5.350;2023-03-23T12:27:15;6.15;;;1.20;;
63965;SDS011;50151;52.030;5.350;2023-03-23T12:30:23;4.72;;;1.05;;
63965;SDS011;50151;52.030;5.350;2023-03-23T12:33:18;7.72;;;1.23;;
63965;SDS011;50151;52.030;5.350;2023-03-23T12:44:27;6.32;;;1.45;;
63965;SDS011;50151;52.030;5.350;2023-03-23T12:47:20;2.80;;;1.10;;
63965;SDS011;50151;52.030;5.350;2023-03-23T12:49:59;6.03;;;1.80;;
63965;SDS011;50151;52.030;5.350;2023-03-23T12:52:47;4.78;;;1.23;;
63965;SDS011;50151;52.030;5.350;2023-03-23T12:55:32;10.25;;;2.10;;
63965;SDS011;50151;52.030;5.350;2023-03-23T12:58:16;5.05;;;1.27;;
63965;SDS011;50151;52.030;5.350;2023-03-23T13:01:01;8.25;;;1.50;;
63965;SDS011;50151;52.030;5.350;2023-03-23T13:03:42;4.10;;;1.50;;
63965;SDS011;50151;52.030;5.350;2023-03-23T13:11:41;6.15;;;1.85;;
63965;SDS011;50151;52.030;5.350;2023-03-23T13:22:52;7.10;;;1.90;;
63965;SDS011;50151;52.030;5.350;2023-03-23T13:25:46;6.65;;;1.75;;
63965;SDS011;50151;52.030;5.350;2023-03-23T13:29:05;5.75;;;1.85;;
63965;SDS011;50151;52.030;5.350;2023-03-23T13:33:49;2.40;;;1.08;;
63965;SDS011;50151;52.030;5.350;2023-03-23T13:36:23;8.68;;;1.50;;
63965;SDS011;50151;52.030;5.350;2023-03-23T13:38:52;10.25;;;1.70;;
63965;SDS011;50151;52.030;5.350;2023-03-23T13:41:18;7.45;;;1.30;;
63965;SDS011;50151;52.030;5.350;2023-03-23T13:43:46;11.35;;;1.80;;
63965;SDS011;50151;52.030;5.350;2023-03-23T13:48:50;8.68;;;2.00;;
63965;SDS011;50151;52.030;5.350;2023-03-23T13:56:42;8.15;;;1.95;;
63965;SDS011;50151;52.030;5.350;2023-03-23T13:59:35;9.88;;;1.92;;
63965;SDS011;50151;52.030;5.350;2023-03-23T14:07:51;3.25;;;1.23;;
63965;SDS011;50151;52.030;5.350;2023-03-23T14:10:31;5.83;;;1.50;;
63965;SDS011;50151;52.030;5.350;2023-03-23T14:15:59;4.07;;;1.40;;
63965;SDS011;50151;52.030;5.350;2023-03-23T14:18:30;6.70;;;1.40;;
63965;SDS011;50151;52.030;5.350;2023-03-23T14:21:03;7.72;;;1.70;;
63965;SDS011;50151;52.030;5.350;2023-03-23T14:23:34;8.10;;;1.50;;
63965;SDS011;50151;52.030;5.350;2023-03-23T14:26:02;3.55;;;1.02;;
63965;SDS011;50151;52.030;5.350;2023-03-23T14:28:39;5.45;;;1.50;;
63965;SDS011;50151;52.030;5.350;2023-03-23T14:33:44;3.92;;;1.67;;
63965;SDS011;50151;52.030;5.350;2023-03-23T14:36:10;7.32;;;1.60;;
63965;SDS011;50151;52.030;5.350;2023-03-23T14:38:35;8.10;;;1.60;;
63965;SDS011;50151;52.030;5.350;2023-03-23T14:41:02;6.72;;;1.20;;
63965;SDS011;50151;52.030;5.350;2023-03-23T14:43:30;4.75;;;1.13;;
63965;SDS011;50151;52.030;5.350;2023-03-23T14:46:00;8.05;;;1.70;;
63965;SDS011;50151;52.030;5.350;2023-03-23T14:48:29;11.13;;;1.48;;
63965;SDS011;50151;52.030;5.350;2023-03-23T14:50:56;4.90;;;1.50;;
63965;SDS011;50151;52.030;5.350;2023-03-23T14:53:25;3.33;;;1.25;;
63965;SDS011;50151;52.030;5.350;2023-03-23T14:55:55;9.50;;;1.52;;
63965;SDS011;50151;52.030;5.350;2023-03-23T14:58:22;9.52;;;1.75;;
63965;SDS011;50151;52.030;5.350;2023-03-23T15:00:52;9.00;;;1.67;;
63965;SDS011;50151;52.030;5.350;2023-03-23T15:03:21;7.38;;;1.10;;
63965;SDS011;50151;52.030;5.350;2023-03-23T15:05:52;7.63;;;1.70;;
63965;SDS011;50151;52.030;5.350;2023-03-23T15:08:30;9.20;;;1.50;;
63965;SDS011;50151;52.030;5.350;2023-03-23T15:11:03;10.00;;;1.85;;
63965;SDS011;50151;52.030;5.350;2023-03-23T15:13:43;5.97;;;1.60;;
63965;SDS011;50151;52.030;5.350;2023-03-23T15:16:21;8.25;;;2.00;;
63965;SDS011;50151;52.030;5.350;2023-03-23T15:18:50;5.72;;;1.30;;
63965;SDS011;50151;52.030;5.350;2023-03-23T15:22:07;5.82;;;1.38;;
63965;SDS011;50151;52.030;5.350;2023-03-23T15:27:11;8.02;;;1.40;;
63965;SDS011;50151;52.030;5.350;2023-03-23T15:29:53;8.38;;;1.80;;
63965;SDS011;50151;52.030;5.350;2023-03-23T15:34:55;12.00;;;2.15;;
63965;SDS011;50151;52.030;5.350;2023-03-23T15:39:53;6.60;;;1.48;;
63965;SDS011;50151;52.030;5.350;2023-03-23T15:42:30;5.25;;;1.80;;
63965;SDS011;50151;52.030;5.350;2023-03-23T15:45:14;8.73;;;1.77;;
63965;SDS011;50151;52.030;5.350;2023-03-23T15:52:52;7.57;;;1.65;;
63965;SDS011;50151;52.030;5.350;2023-03-23T15:55:23;6.75;;;1.80;;
63965;SDS011;50151;52.030;5.350;2023-03-23T15:57:54;8.77;;;1.80;;
63965;SDS011;50151;52.030;5.350;2023-03-23T16:00:23;11.68;;;1.90;;
63965;SDS011;50151;52.030;5.350;2023-03-23T16:02:56;11.25;;;1.83;;
63965;SDS011;50151;52.030;5.350;2023-03-23T16:05:26;6.97;;;2.00;;
63965;SDS011;50151;52.030;5.350;2023-03-23T16:07:53;9.88;;;1.80;;
63965;SDS011;50151;52.030;5.350;2023-03-23T16:10:21;9.13;;;1.70;;
63965;SDS011;50151;52.030;5.350;2023-03-23T16:12:49;7.70;;;2.00;;
63965;SDS011;50151;52.030;5.350;2023-03-23T16:15:17;9.27;;;2.00;;
63965;SDS011;50151;52.030;5.350;2023-03-23T16:17:44;8.73;;;2.22;;
63965;SDS011;50151;52.030;5.350;2023-03-23T16:20:18;7.80;;;2.25;;
63965;SDS011;50151;52.030;5.350;2023-03-23T16:22:47;8.52;;;2.00;;
63965;SDS011;50151;52.030;5.350;2023-03-23T16:25:15;10.23;;;2.08;;
63965;SDS011;50151;52.030;5.350;2023-03-23T16:27:44;10.20;;;2.45;;
63965;SDS011;50151;52.030;5.350;2023-03-23T16:32:51;8.98;;;2.28;;
63965;SDS011;50151;52.030;5.350;2023-03-23T16:35:22;7.68;;;2.30;;
63965;SDS011;50151;52.030;5.350;2023-03-23T16:37:50;9.55;;;1.98;;
63965;SDS011;50151;52.030;5.350;2023-03-23T16:40:34;9.75;;;2.15;;
63965;SDS011;50151;52.030;5.350;2023-03-23T16:43:02;9.52;;;2.15;;
63965;SDS011;50151;52.030;5.350;2023-03-23T16:45:34;7.25;;;1.67;;
63965;SDS011;50151;52.030;5.350;2023-03-23T16:48:09;11.55;;;2.50;;
63965;SDS011;50151;52.030;5.350;2023-03-23T16:50:37;7.93;;;2.17;;
63965;SDS011;50151;52.030;5.350;2023-03-23T16:53:04;8.15;;;1.45;;
63965;SDS011;50151;52.030;5.350;2023-03-23T16:55:33;10.48;;;2.45;;
63965;SDS011;50151;52.030;5.350;2023-03-23T16:58:00;11.05;;;2.15;;
63965;SDS011;50151;52.030;5.350;2023-03-23T17:00:30;4.78;;;1.27;;